sensor_id;sensor_type;location;lat;lon;timestamp;P1;durP1;ratioP1;P2;durP2;ratioP2
22172;SDS011;11252;50.596;17.648;2022-09-12T00:01:21;17.57;;;15.63;;
22172;SDS011;11252;50.596;17.648;2022-09-12T00:03:51;17.77;;;15.97;;
22172;SDS011;11252;50.596;17.648;2022-09-12T00:06:24;19.80;;;15.07;;
22172;SDS011;11252;50.596;17.648;2022-09-12T00:08:54;17.73;;;15.63;;
22172;SDS011;11252;50.596;17.648;2022-09-12T00:11:25;18.33;;;14.67;;
22172;SDS011;11252;50.596;17.648;2022-09-12T00:13:56;17.13;;;15.07;;
22172;SDS011;11252;50.596;17.648;2022-09-12T00:16:26;19.93;;;15.07;;
22172;SDS011;11252;50.596;17.648;2022-09-12T00:18:55;15.67;;;14.00;;
22172;SDS011;11252;50.596;17.648;2022-09-12T00:21:23;18.10;;;15.13;;
22172;SDS011;11252;50.596;17.648;2022-09-12T00:23:51;20.03;;;15.73;;
22172;SDS011;11252;50.596;17.648;2022-09-12T00:26:18;15.80;;;14.00;;
22172;SDS011;11252;50.596;17.648;2022-09-12T00:28:46;18.60;;;14.63;;
22172;SDS011;11252;50.596;17.648;2022-09-12T00:31:18;16.73;;;13.87;;
22172;SDS011;11252;50.596;17.648;2022-09-12T00:33:49;20.27;;;14.30;;
22172;SDS011;11252;50.596;17.648;2022-09-12T00:36:20;15.63;;;13.27;;
22172;SDS011;11252;50.596;17.648;2022-09-12T00:38:49;14.63;;;13.07;;
22172;SDS011;11252;50.596;17.648;2022-09-12T00:41:20;14.93;;;13.33;;
22172;SDS011;11252;50.596;17.648;2022-09-12T00:44:00;14.03;;;12.57;;
22172;SDS011;11252;50.596;17.648;2022-09-12T00:46:56;13.57;;;12.03;;
22172;SDS011;11252;50.596;17.648;2022-09-12T00:49:30;18.60;;;13.27;;
22172;SDS011;11252;50.596;17.648;2022-09-12T00:55:06;14.57;;;10.93;;
22172;SDS011;11252;50.596;17.648;2022-09-12T00:58:22;12.30;;;11.13;;
22172;SDS011;11252;50.596;17.648;2022-09-12T01:00:34;12.73;;;10.80;;
22172;SDS011;11252;50.596;17.648;2022-09-12T01:03:06;13.03;;;11.50;;
22172;SDS011;11252;50.596;17.648;2022-09-12T01:05:36;11.43;;;10.23;;
22172;SDS011;11252;50.596;17.648;2022-09-12T01:08:09;11.70;;;10.57;;
22172;SDS011;11252;50.596;17.648;2022-09-12T01:10:37;14.30;;;11.33;;
22172;SDS011;11252;50.596;17.648;2022-09-12T01:13:07;16.70;;;10.80;;
22172;SDS011;11252;50.596;17.648;2022-09-12T01:15:36;12.07;;;10.13;;
22172;SDS011;11252;50.596;17.648;2022-09-12T01:18:09;14.53;;;11.70;;
22172;SDS011;11252;50.596;17.648;2022-09-12T01:26:20;11.57;;;10.30;;
22172;SDS011;11252;50.596;17.648;2022-09-12T01:32:04;11.33;;;10.13;;
22172;SDS011;11252;50.596;17.648;2022-09-12T01:34:53;12.97;;;10.07;;
22172;SDS011;11252;50.596;17.648;2022-09-12T01:40:08;11.80;;;10.10;;
22172;SDS011;11252;50.596;17.648;2022-09-12T01:42:53;11.60;;;10.10;;
22172;SDS011;11252;50.596;17.648;2022-09-12T01:45:39;13.47;;;11.00;;
22172;SDS011;11252;50.596;17.648;2022-09-12T01:51:20;17.17;;;11.63;;
22172;SDS011;11252;50.596;17.648;2022-09-12T01:53:50;13.23;;;10.77;;
22172;SDS011;11252;50.596;17.648;2022-09-12T01:56:26;11.93;;;10.73;;
22172;SDS011;11252;50.596;17.648;2022-09-12T02:01:35;14.73;;;10.77;;
22172;SDS011;11252;50.596;17.648;2022-09-12T02:04:13;14.47;;;10.90;;
22172;SDS011;11252;50.596;17.648;2022-09-12T02:06:46;11.83;;;10.57;;
22172;SDS011;11252;50.596;17.648;2022-09-12T02:12:21;10.70;;;9.60;;
22172;SDS011;11252;50.596;17.648;2022-09-12T02:14:57;12.77;;;9.30;;
22172;SDS011;11252;50.596;17.648;2022-09-12T02:17:29;14.07;;;10.57;;
22172;SDS011;11252;50.596;17.648;2022-09-12T02:20:06;13.10;;;9.57;;
22172;SDS011;11252;50.596;17.648;2022-09-12T02:23:08;10.47;;;9.37;;
22172;SDS011;11252;50.596;17.648;2022-09-12T02:25:50;11.87;;;10.67;;
22172;SDS011;11252;50.596;17.648;2022-09-12T02:28:22;11.63;;;9.53;;
22172;SDS011;11252;50.596;17.648;2022-09-12T02:36:19;14.53;;;9.93;;
22172;SDS011;11252;50.596;17.648;2022-09-12T02:39:03;12.23;;;9.60;;
22172;SDS011;11252;50.596;17.648;2022-09-12T02:41:31;14.93;;;9.73;;
22172;SDS011;11252;50.596;17.648;2022-09-12T02:43:58;12.77;;;9.70;;
22172;SDS011;11252;50.596;17.648;2022-09-12T02:46:45;11.57;;;10.03;;
22172;SDS011;11252;50.596;17.648;2022-09-12T02:49:16;13.17;;;9.63;;
22172;SDS011;11252;50.596;17.648;2022-09-12T02:51:44;12.27;;;10.37;;
22172;SDS011;11252;50.596;17.648;2022-09-12T02:54:12;11.93;;;9.60;;
22172;SDS011;11252;50.596;17.648;2022-09-12T02:56:43;12.33;;;9.50;;
22172;SDS011;11252;50.596;17.648;2022-09-12T02:59:15;11.63;;;9.03;;
22172;SDS011;11252;50.596;17.648;2022-09-12T03:07:55;9.77;;;8.80;;
22172;SDS011;11252;50.596;17.648;2022-09-12T03:18:40;13.50;;;9.17;;
22172;SDS011;11252;50.596;17.648;2022-09-12T03:29:24;11.43;;;8.37;;
22172;SDS011;11252;50.596;17.648;2022-09-12T03:31:54;16.70;;;8.50;;
22172;SDS011;11252;50.596;17.648;2022-09-12T03:34:24;12.93;;;8.20;;
22172;SDS011;11252;50.596;17.648;2022-09-12T03:36:53;9.13;;;7.30;;
22172;SDS011;11252;50.596;17.648;2022-09-12T03:39:22;8.60;;;7.40;;
22172;SDS011;11252;50.596;17.648;2022-09-12T03:41:50;13.07;;;7.90;;
22172;SDS011;11252;50.596;17.648;2022-09-12T03:44:18;9.80;;;7.23;;
22172;SDS011;11252;50.596;17.648;2022-09-12T03:46:46;8.17;;;7.23;;
22172;SDS011;11252;50.596;17.648;2022-09-12T03:49:13;8.70;;;7.13;;
22172;SDS011;11252;50.596;17.648;2022-09-12T03:51:41;7.50;;;6.80;;
22172;SDS011;11252;50.596;17.648;2022-09-12T03:54:08;11.63;;;7.50;;
22172;SDS011;11252;50.596;17.648;2022-09-12T03:56:36;8.53;;;6.90;;
22172;SDS011;11252;50.596;17.648;2022-09-12T03:59:05;11.87;;;7.40;;
22172;SDS011;11252;50.596;17.648;2022-09-12T04:01:33;10.83;;;6.90;;
22172;SDS011;11252;50.596;17.648;2022-09-12T04:04:01;10.13;;;6.80;;
22172;SDS011;11252;50.596;17.648;2022-09-12T04:06:28;10.90;;;8.00;;
22172;SDS011;11252;50.596;17.648;2022-09-12T04:08:57;10.57;;;7.77;;
22172;SDS011;11252;50.596;17.648;2022-09-12T04:11:24;10.17;;;7.60;;
22172;SDS011;11252;50.596;17.648;2022-09-12T04:13:51;11.33;;;8.00;;
22172;SDS011;11252;50.596;17.648;2022-09-12T04:16:19;8.73;;;7.80;;
22172;SDS011;11252;50.596;17.648;2022-09-12T04:18:47;11.53;;;8.17;;
22172;SDS011;11252;50.596;17.648;2022-09-12T04:21:16;12.30;;;8.30;;
22172;SDS011;11252;50.596;17.648;2022-09-12T04:23:45;8.87;;;7.73;;
22172;SDS011;11252;50.596;17.648;2022-09-12T04:26:13;9.97;;;8.13;;
22172;SDS011;11252;50.596;17.648;2022-09-12T04:28:42;14.87;;;8.40;;
22172;SDS011;11252;50.596;17.648;2022-09-12T04:31:15;12.97;;;8.40;;
22172;SDS011;11252;50.596;17.648;2022-09-12T04:33:44;9.43;;;7.60;;
22172;SDS011;11252;50.596;17.648;2022-09-12T04:36:13;8.87;;;8.03;;
22172;SDS011;11252;50.596;17.648;2022-09-12T04:38:42;8.50;;;7.37;;
22172;SDS011;11252;50.596;17.648;2022-09-12T04:41:11;9.00;;;8.10;;
22172;SDS011;11252;50.596;17.648;2022-09-12T04:43:44;10.43;;;7.77;;
22172;SDS011;11252;50.596;17.648;2022-09-12T04:46:12;11.33;;;8.20;;
22172;SDS011;11252;50.596;17.648;2022-09-12T04:48:42;12.73;;;8.23;;
22172;SDS011;11252;50.596;17.648;2022-09-12T04:51:20;14.03;;;8.50;;
22172;SDS011;11252;50.596;17.648;2022-09-12T04:53:49;13.67;;;8.43;;
22172;SDS011;11252;50.596;17.648;2022-09-12T04:56:18;11.70;;;8.00;;
22172;SDS011;11252;50.596;17.648;2022-09-12T04:58:46;12.67;;;8.40;;
22172;SDS011;11252;50.596;17.648;2022-09-12T05:01:18;13.27;;;8.47;;
22172;SDS011;11252;50.596;17.648;2022-09-12T05:03:48;12.37;;;9.03;;
22172;SDS011;11252;50.596;17.648;2022-09-12T05:06:18;14.93;;;8.33;;
22172;SDS011;11252;50.596;17.648;2022-09-12T05:08:48;10.57;;;8.33;;
22172;SDS011;11252;50.596;17.648;2022-09-12T05:11:17;9.73;;;8.40;;
22172;SDS011;11252;50.596;17.648;2022-09-12T05:13:52;11.97;;;7.97;;
22172;SDS011;11252;50.596;17.648;2022-09-12T05:16:20;8.93;;;7.40;;
22172;SDS011;11252;50.596;17.648;2022-09-12T05:18:49;13.47;;;8.13;;
22172;SDS011;11252;50.596;17.648;2022-09-12T05:21:17;8.60;;;7.20;;
22172;SDS011;11252;50.596;17.648;2022-09-12T05:23:49;7.90;;;6.50;;
22172;SDS011;11252;50.596;17.648;2022-09-12T05:26:17;7.70;;;7.00;;
22172;SDS011;11252;50.596;17.648;2022-09-12T05:28:46;13.00;;;7.23;;
22172;SDS011;11252;50.596;17.648;2022-09-12T05:31:16;13.20;;;6.87;;
22172;SDS011;11252;50.596;17.648;2022-09-12T05:33:54;8.50;;;7.07;;
22172;SDS011;11252;50.596;17.648;2022-09-12T05:36:26;7.67;;;6.57;;
22172;SDS011;11252;50.596;17.648;2022-09-12T05:38:55;8.43;;;6.83;;
22172;SDS011;11252;50.596;17.648;2022-09-12T05:41:24;11.50;;;7.30;;
22172;SDS011;11252;50.596;17.648;2022-09-12T05:44:00;8.00;;;6.57;;
22172;SDS011;11252;50.596;17.648;2022-09-12T05:46:30;8.77;;;6.43;;
22172;SDS011;11252;50.596;17.648;2022-09-12T05:49:02;11.20;;;6.77;;
22172;SDS011;11252;50.596;17.648;2022-09-12T05:51:32;10.07;;;6.23;;
22172;SDS011;11252;50.596;17.648;2022-09-12T05:54:02;8.77;;;6.40;;
22172;SDS011;11252;50.596;17.648;2022-09-12T05:56:32;8.97;;;7.13;;
22172;SDS011;11252;50.596;17.648;2022-09-12T05:59:11;8.47;;;6.13;;
22172;SDS011;11252;50.596;17.648;2022-09-12T06:01:40;9.20;;;6.00;;
22172;SDS011;11252;50.596;17.648;2022-09-12T06:04:08;7.27;;;6.00;;
22172;SDS011;11252;50.596;17.648;2022-09-12T06:06:40;7.17;;;5.90;;
22172;SDS011;11252;50.596;17.648;2022-09-12T06:09:11;6.30;;;5.07;;
22172;SDS011;11252;50.596;17.648;2022-09-12T06:11:40;7.13;;;5.03;;
22172;SDS011;11252;50.596;17.648;2022-09-12T06:14:08;8.13;;;4.93;;
22172;SDS011;11252;50.596;17.648;2022-09-12T06:16:37;5.30;;;4.80;;
22172;SDS011;11252;50.596;17.648;2022-09-12T06:19:06;6.63;;;4.83;;
22172;SDS011;11252;50.596;17.648;2022-09-12T06:21:38;6.00;;;4.83;;
22172;SDS011;11252;50.596;17.648;2022-09-12T06:24:06;6.27;;;4.87;;
22172;SDS011;11252;50.596;17.648;2022-09-12T06:26:33;7.80;;;4.43;;
22172;SDS011;11252;50.596;17.648;2022-09-12T06:29:01;7.47;;;4.27;;
22172;SDS011;11252;50.596;17.648;2022-09-12T06:31:30;6.40;;;4.13;;
22172;SDS011;11252;50.596;17.648;2022-09-12T06:33:59;4.27;;;3.87;;
22172;SDS011;11252;50.596;17.648;2022-09-12T06:36:33;6.27;;;4.07;;
22172;SDS011;11252;50.596;17.648;2022-09-12T06:39:04;5.97;;;4.00;;
22172;SDS011;11252;50.596;17.648;2022-09-12T06:41:43;6.53;;;4.17;;
22172;SDS011;11252;50.596;17.648;2022-09-12T06:44:12;16.70;;;4.90;;
22172;SDS011;11252;50.596;17.648;2022-09-12T06:46:41;5.83;;;3.97;;
22172;SDS011;11252;50.596;17.648;2022-09-12T06:49:10;7.27;;;3.20;;
22172;SDS011;11252;50.596;17.648;2022-09-12T06:51:38;6.97;;;4.00;;
22172;SDS011;11252;50.596;17.648;2022-09-12T06:54:07;7.33;;;3.87;;
22172;SDS011;11252;50.596;17.648;2022-09-12T06:56:37;4.53;;;3.60;;
22172;SDS011;11252;50.596;17.648;2022-09-12T06:59:06;6.63;;;3.67;;
22172;SDS011;11252;50.596;17.648;2022-09-12T07:01:33;4.90;;;3.80;;
22172;SDS011;11252;50.596;17.648;2022-09-12T07:04:01;4.40;;;4.00;;
22172;SDS011;11252;50.596;17.648;2022-09-12T07:06:33;8.37;;;3.77;;
22172;SDS011;11252;50.596;17.648;2022-09-12T07:09:06;5.00;;;4.17;;
22172;SDS011;11252;50.596;17.648;2022-09-12T07:11:36;5.27;;;3.50;;
22172;SDS011;11252;50.596;17.648;2022-09-12T07:14:06;8.70;;;4.07;;
22172;SDS011;11252;50.596;17.648;2022-09-12T07:16:34;5.33;;;3.77;;
22172;SDS011;11252;50.596;17.648;2022-09-12T07:19:03;7.07;;;3.27;;
22172;SDS011;11252;50.596;17.648;2022-09-12T07:21:32;7.07;;;3.03;;
22172;SDS011;11252;50.596;17.648;2022-09-12T07:24:06;5.00;;;3.00;;
22172;SDS011;11252;50.596;17.648;2022-09-12T07:26:36;9.77;;;3.57;;
22172;SDS011;11252;50.596;17.648;2022-09-12T07:29:04;3.67;;;2.83;;
22172;SDS011;11252;50.596;17.648;2022-09-12T07:31:51;5.73;;;2.97;;
22172;SDS011;11252;50.596;17.648;2022-09-12T07:34:19;4.97;;;2.37;;
22172;SDS011;11252;50.596;17.648;2022-09-12T07:36:47;6.33;;;2.50;;
22172;SDS011;11252;50.596;17.648;2022-09-12T07:39:14;3.87;;;2.00;;
22172;SDS011;11252;50.596;17.648;2022-09-12T07:41:42;3.43;;;2.30;;
22172;SDS011;11252;50.596;17.648;2022-09-12T07:44:10;5.70;;;2.87;;
22172;SDS011;11252;50.596;17.648;2022-09-12T07:46:37;8.60;;;2.67;;
22172;SDS011;11252;50.596;17.648;2022-09-12T07:49:05;4.97;;;2.30;;
22172;SDS011;11252;50.596;17.648;2022-09-12T07:51:33;7.63;;;2.97;;
22172;SDS011;11252;50.596;17.648;2022-09-12T07:54:01;5.43;;;2.30;;
22172;SDS011;11252;50.596;17.648;2022-09-12T07:56:32;4.53;;;2.30;;
22172;SDS011;11252;50.596;17.648;2022-09-12T07:59:04;6.73;;;2.40;;
22172;SDS011;11252;50.596;17.648;2022-09-12T08:01:32;3.13;;;2.23;;
22172;SDS011;11252;50.596;17.648;2022-09-12T08:04:00;2.43;;;2.20;;
22172;SDS011;11252;50.596;17.648;2022-09-12T08:06:27;2.97;;;2.23;;
22172;SDS011;11252;50.596;17.648;2022-09-12T08:08:59;4.90;;;2.10;;
22172;SDS011;11252;50.596;17.648;2022-09-12T08:11:27;3.57;;;2.23;;
22172;SDS011;11252;50.596;17.648;2022-09-12T08:13:55;5.13;;;2.28;;
22172;SDS011;11252;50.596;17.648;2022-09-12T08:16:25;2.72;;;2.00;;
22172;SDS011;11252;50.596;17.648;2022-09-12T08:18:55;4.68;;;1.98;;
22172;SDS011;11252;50.596;17.648;2022-09-12T08:21:24;4.20;;;1.63;;
22172;SDS011;11252;50.596;17.648;2022-09-12T08:23:53;6.63;;;2.22;;
22172;SDS011;11252;50.596;17.648;2022-09-12T08:26:23;4.45;;;2.10;;
22172;SDS011;11252;50.596;17.648;2022-09-12T08:28:50;6.75;;;2.22;;
22172;SDS011;11252;50.596;17.648;2022-09-12T08:31:19;2.50;;;1.98;;
22172;SDS011;11252;50.596;17.648;2022-09-12T08:33:49;9.60;;;2.08;;
22172;SDS011;11252;50.596;17.648;2022-09-12T08:36:20;3.85;;;2.10;;
22172;SDS011;11252;50.596;17.648;2022-09-12T08:38:50;4.63;;;2.03;;
22172;SDS011;11252;50.596;17.648;2022-09-12T08:41:32;4.10;;;2.13;;
22172;SDS011;11252;50.596;17.648;2022-09-12T08:47:11;2.72;;;1.95;;
22172;SDS011;11252;50.596;17.648;2022-09-12T08:55:52;3.25;;;1.85;;
22172;SDS011;11252;50.596;17.648;2022-09-12T08:58:08;3.92;;;2.08;;
22172;SDS011;11252;50.596;17.648;2022-09-12T09:00:44;5.20;;;2.13;;
22172;SDS011;11252;50.596;17.648;2022-09-12T09:23:13;4.60;;;2.70;;
22172;SDS011;11252;50.596;17.648;2022-09-12T09:28:38;3.25;;;2.15;;
22172;SDS011;11252;50.596;17.648;2022-09-12T09:31:14;1.73;;;1.63;;
22172;SDS011;11252;50.596;17.648;2022-09-12T09:33:43;6.20;;;2.08;;
22172;SDS011;11252;50.596;17.648;2022-09-12T09:42:00;3.20;;;1.90;;
22172;SDS011;11252;50.596;17.648;2022-09-12T09:44:36;5.88;;;2.35;;
22172;SDS011;11252;50.596;17.648;2022-09-12T09:47:04;5.72;;;2.17;;
22172;SDS011;11252;50.596;17.648;2022-09-12T09:49:32;2.80;;;1.90;;
22172;SDS011;11252;50.596;17.648;2022-09-12T09:52:01;2.63;;;1.70;;
22172;SDS011;11252;50.596;17.648;2022-09-12T09:57:01;4.40;;;1.70;;
22172;SDS011;11252;50.596;17.648;2022-09-12T09:59:31;4.95;;;2.38;;
22172;SDS011;11252;50.596;17.648;2022-09-12T10:02:00;3.40;;;2.00;;
22172;SDS011;11252;50.596;17.648;2022-09-12T10:04:39;4.47;;;2.65;;
22172;SDS011;11252;50.596;17.648;2022-09-12T10:07:18;2.38;;;1.60;;
22172;SDS011;11252;50.596;17.648;2022-09-12T10:10:04;4.72;;;2.00;;
22172;SDS011;11252;50.596;17.648;2022-09-12T10:12:32;8.75;;;2.15;;
22172;SDS011;11252;50.596;17.648;2022-09-12T10:15:00;3.65;;;1.85;;
22172;SDS011;11252;50.596;17.648;2022-09-12T10:17:41;4.47;;;2.10;;
22172;SDS011;11252;50.596;17.648;2022-09-12T10:22:58;6.30;;;1.90;;
22172;SDS011;11252;50.596;17.648;2022-09-12T10:25:27;5.15;;;1.92;;
22172;SDS011;11252;50.596;17.648;2022-09-12T10:27:57;4.00;;;1.85;;
22172;SDS011;11252;50.596;17.648;2022-09-12T10:30:26;2.58;;;1.70;;
22172;SDS011;11252;50.596;17.648;2022-09-12T10:33:03;6.38;;;1.85;;
22172;SDS011;11252;50.596;17.648;2022-09-12T10:35:44;3.63;;;1.92;;
22172;SDS011;11252;50.596;17.648;2022-09-12T10:43:28;4.38;;;2.17;;
22172;SDS011;11252;50.596;17.648;2022-09-12T10:48:49;2.47;;;1.83;;
22172;SDS011;11252;50.596;17.648;2022-09-12T10:53:52;3.35;;;1.73;;
22172;SDS011;11252;50.596;17.648;2022-09-12T10:56:27;3.00;;;1.75;;
22172;SDS011;11252;50.596;17.648;2022-09-12T11:01:48;3.25;;;1.88;;
22172;SDS011;11252;50.596;17.648;2022-09-12T11:12:40;3.00;;;1.20;;
22172;SDS011;11252;50.596;17.648;2022-09-12T11:15:36;3.53;;;1.58;;
22172;SDS011;11252;50.596;17.648;2022-09-12T11:19:00;7.30;;;2.20;;
22172;SDS011;11252;50.596;17.648;2022-09-12T11:27:32;4.78;;;1.52;;
22172;SDS011;11252;50.596;17.648;2022-09-12T11:30:19;1.65;;;1.55;;
22172;SDS011;11252;50.596;17.648;2022-09-12T11:33:23;5.25;;;1.70;;
22172;SDS011;11252;50.596;17.648;2022-09-12T11:35:56;5.53;;;1.83;;
22172;SDS011;11252;50.596;17.648;2022-09-12T11:48:58;7.65;;;1.83;;
22172;SDS011;11252;50.596;17.648;2022-09-12T11:57:25;3.55;;;1.60;;
22172;SDS011;11252;50.596;17.648;2022-09-12T12:00:01;4.25;;;1.60;;
22172;SDS011;11252;50.596;17.648;2022-09-12T12:02:34;5.30;;;1.90;;
22172;SDS011;11252;50.596;17.648;2022-09-12T12:08:06;4.72;;;1.77;;
22172;SDS011;11252;50.596;17.648;2022-09-12T12:15:52;3.83;;;1.73;;
22172;SDS011;11252;50.596;17.648;2022-09-12T12:18:24;3.30;;;1.70;;
22172;SDS011;11252;50.596;17.648;2022-09-12T12:20:54;7.28;;;1.42;;
22172;SDS011;11252;50.596;17.648;2022-09-12T12:23:28;2.28;;;1.52;;
22172;SDS011;11252;50.596;17.648;2022-09-12T12:25:59;7.05;;;2.30;;
22172;SDS011;11252;50.596;17.648;2022-09-12T12:31:08;4.30;;;1.48;;
22172;SDS011;11252;50.596;17.648;2022-09-12T12:36:06;6.72;;;1.40;;
22172;SDS011;11252;50.596;17.648;2022-09-12T12:38:38;7.28;;;1.60;;
22172;SDS011;11252;50.596;17.648;2022-09-12T12:46:16;4.93;;;1.60;;
22172;SDS011;11252;50.596;17.648;2022-09-12T12:48:47;3.28;;;1.40;;
22172;SDS011;11252;50.596;17.648;2022-09-12T12:53:54;1.98;;;1.60;;
22172;SDS011;11252;50.596;17.648;2022-09-12T12:59:21;9.63;;;1.65;;
22172;SDS011;11252;50.596;17.648;2022-09-12T13:01:50;2.85;;;1.92;;
22172;SDS011;11252;50.596;17.648;2022-09-12T13:04:22;2.92;;;1.42;;
22172;SDS011;11252;50.596;17.648;2022-09-12T13:06:59;1.90;;;1.50;;
22172;SDS011;11252;50.596;17.648;2022-09-12T13:09:52;6.63;;;1.87;;
22172;SDS011;11252;50.596;17.648;2022-09-12T13:12:24;3.97;;;1.58;;
22172;SDS011;11252;50.596;17.648;2022-09-12T13:14:55;3.63;;;1.42;;
22172;SDS011;11252;50.596;17.648;2022-09-12T13:22:55;2.60;;;1.75;;
22172;SDS011;11252;50.596;17.648;2022-09-12T13:25:32;3.53;;;1.58;;
22172;SDS011;11252;50.596;17.648;2022-09-12T13:30:42;4.72;;;1.70;;
22172;SDS011;11252;50.596;17.648;2022-09-12T13:44:22;5.38;;;2.00;;
22172;SDS011;11252;50.596;17.648;2022-09-12T13:46:52;3.85;;;1.63;;
22172;SDS011;11252;50.596;17.648;2022-09-12T13:49:22;4.07;;;1.42;;
22172;SDS011;11252;50.596;17.648;2022-09-12T13:52:08;4.10;;;1.67;;
22172;SDS011;11252;50.596;17.648;2022-09-12T13:54:43;3.35;;;1.40;;
22172;SDS011;11252;50.596;17.648;2022-09-12T14:02:38;5.47;;;2.47;;
22172;SDS011;11252;50.596;17.648;2022-09-12T14:05:13;3.88;;;2.20;;
22172;SDS011;11252;50.596;17.648;2022-09-12T14:07:55;5.03;;;2.30;;
22172;SDS011;11252;50.596;17.648;2022-09-12T14:12:52;6.25;;;1.73;;
22172;SDS011;11252;50.596;17.648;2022-09-12T14:15:26;2.38;;;2.03;;
22172;SDS011;11252;50.596;17.648;2022-09-12T14:18:01;4.78;;;1.83;;
22172;SDS011;11252;50.596;17.648;2022-09-12T14:20:31;4.60;;;1.90;;
22172;SDS011;11252;50.596;17.648;2022-09-12T14:23:15;2.03;;;1.60;;
22172;SDS011;11252;50.596;17.648;2022-09-12T14:25:53;4.53;;;1.80;;
22172;SDS011;11252;50.596;17.648;2022-09-12T14:28:22;5.03;;;2.23;;
22172;SDS011;11252;50.596;17.648;2022-09-12T14:30:57;2.60;;;1.70;;
22172;SDS011;11252;50.596;17.648;2022-09-12T14:33:44;4.95;;;2.20;;
22172;SDS011;11252;50.596;17.648;2022-09-12T14:38:55;2.33;;;2.13;;
22172;SDS011;11252;50.596;17.648;2022-09-12T14:41:30;6.93;;;2.30;;
22172;SDS011;11252;50.596;17.648;2022-09-12T14:44:02;4.90;;;2.15;;
22172;SDS011;11252;50.596;17.648;2022-09-12T14:46:34;2.97;;;1.87;;
22172;SDS011;11252;50.596;17.648;2022-09-12T14:49:08;7.73;;;1.73;;
22172;SDS011;11252;50.596;17.648;2022-09-12T14:54:53;2.50;;;2.00;;
22172;SDS011;11252;50.596;17.648;2022-09-12T15:00:06;4.77;;;2.03;;
22172;SDS011;11252;50.596;17.648;2022-09-12T15:02:38;3.00;;;2.10;;
22172;SDS011;11252;50.596;17.648;2022-09-12T15:07:38;4.97;;;2.00;;
22172;SDS011;11252;50.596;17.648;2022-09-12T15:15:41;3.27;;;2.00;;
22172;SDS011;11252;50.596;17.648;2022-09-12T15:18:09;3.83;;;2.10;;
22172;SDS011;11252;50.596;17.648;2022-09-12T15:20:38;3.93;;;2.00;;
22172;SDS011;11252;50.596;17.648;2022-09-12T15:23:15;8.30;;;2.42;;
22172;SDS011;11252;50.596;17.648;2022-09-12T15:25:44;2.83;;;2.37;;
22172;SDS011;11252;50.596;17.648;2022-09-12T15:28:20;3.43;;;2.53;;
22172;SDS011;11252;50.596;17.648;2022-09-12T15:30:49;3.10;;;1.73;;
22172;SDS011;11252;50.596;17.648;2022-09-12T15:33:19;2.20;;;1.87;;
22172;SDS011;11252;50.596;17.648;2022-09-12T15:35:48;2.63;;;1.73;;
22172;SDS011;11252;50.596;17.648;2022-09-12T15:38:16;5.23;;;2.60;;
22172;SDS011;11252;50.596;17.648;2022-09-12T15:40:51;3.13;;;2.07;;
22172;SDS011;11252;50.596;17.648;2022-09-12T15:43:20;5.03;;;2.83;;
22172;SDS011;11252;50.596;17.648;2022-09-12T15:45:48;5.90;;;2.67;;
22172;SDS011;11252;50.596;17.648;2022-09-12T15:48:18;6.23;;;3.00;;
22172;SDS011;11252;50.596;17.648;2022-09-12T15:50:46;4.27;;;2.87;;
22172;SDS011;11252;50.596;17.648;2022-09-12T15:53:14;4.37;;;2.87;;
22172;SDS011;11252;50.596;17.648;2022-09-12T15:55:43;3.10;;;2.23;;
22172;SDS011;11252;50.596;17.648;2022-09-12T15:58:11;8.13;;;3.07;;
22172;SDS011;11252;50.596;17.648;2022-09-12T16:00:38;5.27;;;3.40;;
22172;SDS011;11252;50.596;17.648;2022-09-12T16:03:08;6.07;;;3.10;;
22172;SDS011;11252;50.596;17.648;2022-09-12T16:05:45;5.63;;;2.47;;
22172;SDS011;11252;50.596;17.648;2022-09-12T16:08:13;3.37;;;2.33;;
22172;SDS011;11252;50.596;17.648;2022-09-12T16:10:41;5.37;;;2.30;;
22172;SDS011;11252;50.596;17.648;2022-09-12T16:13:12;2.70;;;1.97;;
22172;SDS011;11252;50.596;17.648;2022-09-12T16:15:39;4.07;;;2.63;;
22172;SDS011;11252;50.596;17.648;2022-09-12T16:18:07;4.17;;;2.23;;
22172;SDS011;11252;50.596;17.648;2022-09-12T16:20:34;5.20;;;2.80;;
22172;SDS011;11252;50.596;17.648;2022-09-12T16:23:03;7.67;;;2.50;;
22172;SDS011;11252;50.596;17.648;2022-09-12T16:25:32;3.47;;;2.67;;
22172;SDS011;11252;50.596;17.648;2022-09-12T16:27:59;6.73;;;2.60;;
22172;SDS011;11252;50.596;17.648;2022-09-12T16:30:27;2.87;;;2.57;;
22172;SDS011;11252;50.596;17.648;2022-09-12T16:32:57;4.97;;;2.27;;
22172;SDS011;11252;50.596;17.648;2022-09-12T16:35:24;7.60;;;2.57;;
22172;SDS011;11252;50.596;17.648;2022-09-12T16:37:52;3.80;;;2.50;;
22172;SDS011;11252;50.596;17.648;2022-09-12T16:40:20;4.17;;;3.23;;
22172;SDS011;11252;50.596;17.648;2022-09-12T16:42:49;3.53;;;2.93;;
22172;SDS011;11252;50.596;17.648;2022-09-12T16:45:16;4.50;;;3.00;;
22172;SDS011;11252;50.596;17.648;2022-09-12T16:47:43;5.57;;;3.03;;
22172;SDS011;11252;50.596;17.648;2022-09-12T16:50:11;4.13;;;3.17;;
22172;SDS011;11252;50.596;17.648;2022-09-12T16:52:39;4.20;;;2.67;;
22172;SDS011;11252;50.596;17.648;2022-09-12T16:55:06;6.60;;;3.20;;
22172;SDS011;11252;50.596;17.648;2022-09-12T16:57:34;4.17;;;2.83;;
22172;SDS011;11252;50.596;17.648;2022-09-12T17:00:02;3.97;;;2.90;;
22172;SDS011;11252;50.596;17.648;2022-09-12T17:02:30;2.90;;;2.43;;
22172;SDS011;11252;50.596;17.648;2022-09-12T17:04:58;4.57;;;3.20;;
22172;SDS011;11252;50.596;17.648;2022-09-12T17:07:25;2.90;;;2.60;;
22172;SDS011;11252;50.596;17.648;2022-09-12T17:09:53;4.13;;;2.53;;
22172;SDS011;11252;50.596;17.648;2022-09-12T17:12:21;8.30;;;2.60;;
22172;SDS011;11252;50.596;17.648;2022-09-12T17:14:49;3.90;;;3.23;;
22172;SDS011;11252;50.596;17.648;2022-09-12T17:17:16;3.43;;;2.80;;
22172;SDS011;11252;50.596;17.648;2022-09-12T17:19:44;5.53;;;3.10;;
22172;SDS011;11252;50.596;17.648;2022-09-12T17:22:11;25.27;;;22.30;;
22172;SDS011;11252;50.596;17.648;2022-09-12T17:24:39;8.03;;;7.23;;
22172;SDS011;11252;50.596;17.648;2022-09-12T17:27:07;23.63;;;17.13;;
22172;SDS011;11252;50.596;17.648;2022-09-12T17:29:35;6.53;;;3.50;;
22172;SDS011;11252;50.596;17.648;2022-09-12T17:32:04;6.10;;;3.07;;
22172;SDS011;11252;50.596;17.648;2022-09-12T17:34:31;5.40;;;3.03;;
22172;SDS011;11252;50.596;17.648;2022-09-12T17:36:59;2.97;;;2.67;;
22172;SDS011;11252;50.596;17.648;2022-09-12T17:39:27;4.03;;;3.10;;
22172;SDS011;11252;50.596;17.648;2022-09-12T17:41:54;4.80;;;4.30;;
22172;SDS011;11252;50.596;17.648;2022-09-12T17:44:23;6.03;;;3.37;;
22172;SDS011;11252;50.596;17.648;2022-09-12T17:46:50;7.83;;;3.97;;
22172;SDS011;11252;50.596;17.648;2022-09-12T17:49:17;6.53;;;3.10;;
22172;SDS011;11252;50.596;17.648;2022-09-12T17:51:47;3.90;;;2.80;;
22172;SDS011;11252;50.596;17.648;2022-09-12T17:54:15;6.47;;;2.97;;
22172;SDS011;11252;50.596;17.648;2022-09-12T17:56:44;4.53;;;3.27;;
22172;SDS011;11252;50.596;17.648;2022-09-12T17:59:16;5.17;;;3.37;;
22172;SDS011;11252;50.596;17.648;2022-09-12T18:01:46;4.70;;;4.27;;
22172;SDS011;11252;50.596;17.648;2022-09-12T18:04:33;8.70;;;5.63;;
22172;SDS011;11252;50.596;17.648;2022-09-12T18:07:00;9.77;;;6.23;;
22172;SDS011;11252;50.596;17.648;2022-09-12T18:09:28;8.60;;;6.10;;
22172;SDS011;11252;50.596;17.648;2022-09-12T18:11:56;7.17;;;6.13;;
22172;SDS011;11252;50.596;17.648;2022-09-12T18:14:24;13.17;;;6.80;;
22172;SDS011;11252;50.596;17.648;2022-09-12T18:16:53;13.60;;;6.53;;
22172;SDS011;11252;50.596;17.648;2022-09-12T18:19:22;7.70;;;6.83;;